الصفحة الرئيسية
METAR-TAF:

METAR-TAF

مطار :

نوميا, نيو كاليدونيا

دائرة عرض: 22-15-30S, خط طول: 166-28-22E, ارتفاع: 3 متر

METAR: مفقودة

زمن: 12:43 (01:43 UTC)

توقعات

تاريخ ووقت الإصدار 8ساعات و 43 دقيقة قبل الساعة 17:00UTC
التوقعات صالحة من20 الساعة 18 UTC إلى 21 الساعة 18 UTC
ريح 8 عقدة من الشرق/الشمال الشرقي
الرؤية 10 كم أو أكثر
غيوم قليلة على ارتفاع 2200 قدم
غيوم متفرقة على ارتفاع 2700 قدم
غيوم مفككة على ارتفاع 3700 قدم
مؤقت
من 20 الساعة 18 UTC إلى 20 الساعة 21 UTC
الرؤية: 4000 متر
غيوم قليلة على ارتفاع 2000 قدم, مزن ركامية عمودية.
زخات من المطر
أصبح
من 20 الساعة 21 UTC إلى 20 الساعة 24 UTC
ريح 16 عقدة من الجنوب الشرقي
نظرية الاحتمالات 30% :
مؤقت
من 20 الساعة 21 UTC إلى 21 الساعة 03 UTC
ريح 22 عقدة من الجنوب الشرقي تتزايد حتى 32 عقدة
غيوم قليلة على ارتفاع 2500 قدم, مزن ركامية عمودية.
زخات من المطر

TAF: NWWM 201700Z 2018/2118 06008KT 9999 FEW022 SCT027 BKN037 TEMPO 2018/2021 4000 SHRA FEW020TCU BECMG 2021/2024 13016KT PROB30 TEMPO 2021/2103 13022G32KT SHRA FEW025TCU

أرصاد الطقس والتوقعات من أكثر من 4000 مطار (تقارير الطقس للمطار METAR والتنبؤ بالطقس بالمطارTAF).

المحطات المتاحة هي النقط الصفراء والحمراء على الخريطة.

حرك المؤشر فوق النقطة لمعرفة اسم المحطة.

ثم انقر لمعرفة أرصاد وتوقعات الطقس.

لتغيير الخارطة: اضغط على الأزرار الخضراء مع رمز الصليب الأسود للتكبير. على الزر الأخضر مع شرطة للتصغير، أو على الأسهم الخضراء للخرائط المجاورة.


METAR-TAF: